Time;durP1;ratioP1;P1;durP2;ratioP2;P2;SDS_P1;SDS_P2;PMS_P1;PMS_P2;Temp;Humidity;BMP_temperature;BMP_pressure;BME280_temperature;BME280_humidity;BME280_pressure;Samples;Min_cycle;Max_cycle;Signal;HPM_P1;HPM_P2
2024/04/15 00:00:33;;;;;;;11.30;5.75;;;;;;;14.12;68.05;99598.03;5336846;26;19991;-91
2024/04/15 00:02:59;;;;;;;13.10;6.65;;;;;;;14.03;68.14;99594.31;5364605;26;19988;-91
2024/04/15 00:05:26;;;;;;;10.48;6.32;;;;;;;14.17;68.29;99632.38;5367239;26;19996;-91
2024/04/15 00:07:52;;;;;;;13.52;6.80;;;;;;;13.97;68.46;99615.22;5367060;26;20034;-91
2024/04/15 00:10:17;;;;;;;13.23;6.70;;;;;;;13.92;68.75;99612.56;5367657;26;20007;-91
2024/04/15 00:12:43;;;;;;;12.52;6.95;;;;;;;13.81;69.02;99603.72;5367713;26;20051;-92
2024/04/15 00:15:09;;;;;;;11.95;6.72;;;;;;;13.87;69.33;99613.41;5372540;26;20463;-92
2024/04/15 00:17:34;;;;;;;21.38;7.10;;;;;;;13.83;69.04;99606.16;5430367;26;20398;-91
2024/04/15 00:20:00;;;;;;;13.23;6.93;;;;;;;13.91;69.30;99619.09;5370543;26;20075;-92
2024/04/15 00:22:26;;;;;;;9.50;6.22;;;;;;;14.00;69.27;99630.91;5370562;26;19998;-91
2024/04/15 00:24:51;;;;;;;12.45;6.72;;;;;;;13.69;69.31;99595.97;5373744;26;19999;-92
2024/04/15 00:27:17;;;;;;;10.10;7.07;;;;;;;13.82;69.24;99602.66;5369958;26;20010;-90
2024/04/15 00:29:43;;;;;;;14.35;7.25;;;;;;;13.85;69.64;99614.81;5371399;26;19999;-91
2024/04/15 00:32:08;;;;;;;11.30;7.18;;;;;;;13.83;69.46;99615.06;5370053;26;20014;-90
2024/04/15 00:34:34;;;;;;;13.88;7.00;;;;;;;13.69;69.26;99595.16;5372024;26;19995;-93
2024/04/15 00:37:00;;;;;;;12.32;6.85;;;;;;;13.73;69.65;99601.63;5402522;26;20007;-92
2024/04/15 00:39:25;;;;;;;20.10;7.05;;;;;;;13.70;69.58;99597.59;5374389;26;19995;-92
2024/04/15 00:41:51;;;;;;;13.40;7.15;;;;;;;13.77;69.77;99597.25;5399865;26;20422;-91
2024/04/15 00:44:17;;;;;;;8.38;5.70;;;;;;;13.80;69.67;99612.94;5371704;26;20002;-94
2024/04/15 00:46:43;;;;;;;12.45;6.78;;;;;;;13.70;69.72;99605.72;5401078;26;19994;-91
2024/04/15 00:49:09;;;;;;;12.18;7.40;;;;;;;13.66;69.58;99603.88;5371752;26;20009;-92
2024/04/15 00:51:35;;;;;;;12.52;7.00;;;;;;;13.68;70.01;99610.59;5372628;26;19991;-90
2024/04/15 00:54:01;;;;;;;9.75;6.47;;;;;;;13.58;69.70;99588.25;5371419;26;19998;-92
2024/04/15 00:56:26;;;;;;;9.95;7.22;;;;;;;13.52;69.73;99582.06;5371246;26;20006;-91
2024/04/15 00:58:53;;;;;;;16.58;7.68;;;;;;;13.61;69.86;99604.69;5370516;26;19997;-92
2024/04/15 01:01:23;;;;;;;15.25;7.90;;;;;;;13.41;70.21;99581.31;5427868;26;19991;-89
2024/04/15 01:03:50;;;;;;;14.38;7.07;;;;;;;13.47;70.15;99601.84;5372591;26;20044;-91
2024/04/15 01:06:16;;;;;;;10.27;6.55;;;;;;;13.33;70.35;99584.63;5399492;26;20002;-92
2024/04/15 01:08:42;;;;;;;10.63;6.25;;;;;;;13.43;70.40;99605.41;5399889;26;19999;-92
2024/04/15 01:11:10;;;;;;;10.85;6.00;;;;;;;13.39;70.45;99599.75;5397288;26;20009;-91
2024/04/15 01:13:35;;;;;;;11.88;5.95;;;;;;;13.45;70.50;99614.84;5426924;26;20057;-89
2024/04/15 01:16:01;;;;;;;10.05;6.13;;;;;;;13.34;70.65;99597.88;5369828;26;20401;-92
2024/04/15 01:18:27;;;;;;;10.48;5.43;;;;;;;13.33;70.74;99598.16;5368468;26;20382;-93
2024/04/15 01:20:55;;;;;;;10.75;6.43;;;;;;;13.31;70.47;99603.03;5368499;26;19995;-91
2024/04/15 01:23:29;;;;;;;10.48;6.15;;;;;;;13.23;70.57;99584.66;5368273;26;20317;-93
2024/04/15 01:25:55;;;;;;;11.15;6.43;;;;;;;13.22;70.62;99578.47;5370414;26;20022;-91
2024/04/15 01:28:21;;;;;;;11.23;6.10;;;;;;;13.40;70.49;99593.22;5369245;26;19999;-91
2024/04/15 01:30:47;;;;;;;9.75;5.93;;;;;;;13.30;70.48;99585.19;5372528;26;19990;-92
2024/04/15 01:33:12;;;;;;;10.48;5.60;;;;;;;13.32;70.39;99586.53;5370962;26;20003;-91
2024/04/15 01:35:38;;;;;;;15.68;6.65;;;;;;;13.24;70.18;99573.59;5397482;26;19999;-91
2024/04/15 01:38:04;;;;;;;11.85;5.68;;;;;;;13.18;70.67;99582.81;5367273;26;19999;-91
2024/04/15 01:40:29;;;;;;;10.50;6.38;;;;;;;13.10;70.76;99578.78;5368177;26;19995;-92
2024/04/15 01:42:55;;;;;;;14.18;6.40;;;;;;;13.17;70.50;99591.19;5389655;26;20001;-92
2024/04/15 01:45:24;;;;;;;14.25;6.90;;;;;;;13.13;70.60;99585.53;5334934;26;20064;-91
2024/04/15 01:47:52;;;;;;;11.57;6.55;;;;;;;12.90;71.20;99560.78;5338898;26;19995;-91
2024/04/15 01:50:18;;;;;;;9.63;6.53;;;;;;;13.05;71.13;99578.84;5336498;26;20007;-91
2024/04/15 01:52:43;;;;;;;9.75;5.90;;;;;;;12.96;71.10;99571.59;5362675;26;20417;-88
2024/04/15 01:55:09;;;;;;;12.90;6.20;;;;;;;12.94;71.08;99575.38;5334670;26;20002;-90
2024/04/15 01:57:35;;;;;;;7.82;5.60;;;;;;;12.89;71.07;99570.00;5361848;26;20334;-91
2024/04/15 02:00:05;;;;;;;11.93;6.10;;;;;;;12.80;71.16;99551.94;5334698;26;19995;-92
2024/04/15 02:02:31;;;;;;;15.27;6.22;;;;;;;12.75;71.22;99563.59;5335463;26;20000;-91
2024/04/15 02:05:00;;;;;;;13.13;6.43;;;;;;;12.63;71.44;99558.50;5332222;26;20007;-91
2024/04/15 02:07:25;;;;;;;10.40;5.55;;;;;;;12.65;71.88;99560.94;5334815;26;19999;-90
2024/04/15 02:09:52;;;;;;;11.65;6.57;;;;;;;12.56;71.73;99552.59;5333009;26;19992;-89
2024/04/15 02:12:17;;;;;;;9.90;5.97;;;;;;;12.54;71.90;99552.88;5333220;26;19996;-91
2024/04/15 02:14:43;;;;;;;13.57;5.95;;;;;;;12.70;71.99;99571.72;5327821;26;20047;-92
2024/04/15 02:17:08;;;;;;;10.13;6.45;;;;;;;12.65;72.28;99577.16;5326712;26;20083;-91
2024/04/15 02:19:34;;;;;;;8.65;5.90;;;;;;;12.64;72.00;99572.84;5325795;26;20008;-92
2024/04/15 02:22:00;;;;;;;13.68;5.90;;;;;;;12.55;72.16;99550.97;5328273;26;20008;-92
2024/04/15 02:24:27;;;;;;;10.75;6.45;;;;;;;12.63;72.16;99574.72;5326995;26;20000;-91
2024/04/15 02:26:54;;;;;;;8.13;5.43;;;;;;;12.50;72.53;99551.81;5328556;26;20008;-92
2024/04/15 02:29:19;;;;;;;12.32;6.22;;;;;;;12.65;72.22;99588.75;5328881;26;20007;-91
2024/04/15 02:31:45;;;;;;;9.13;6.55;;;;;;;12.60;72.12;99567.19;5359254;26;19992;-91
2024/04/15 02:34:11;;;;;;;9.52;5.80;;;;;;;12.54;72.03;99554.78;5327666;26;19999;-92
2024/04/15 02:36:37;;;;;;;11.93;6.45;;;;;;;12.75;71.98;99587.91;5326676;26;19996;-94
2024/04/15 02:39:03;;;;;;;11.82;6.00;;;;;;;12.53;72.04;99559.38;5325733;26;20385;-92
2024/04/15 02:41:30;;;;;;;10.02;6.25;;;;;;;12.64;71.99;99576.34;5330302;26;19997;-92
2024/04/15 02:43:56;;;;;;;12.00;6.35;;;;;;;12.63;71.82;99574.72;5327997;26;20001;-91
2024/04/15 02:46:22;;;;;;;9.98;6.03;;;;;;;12.41;71.89;99550.78;5326459;26;20066;-91
2024/04/15 02:48:48;;;;;;;10.55;5.95;;;;;;;12.37;72.07;99565.91;5326704;26;20423;-91
2024/04/15 02:51:14;;;;;;;9.35;5.63;;;;;;;12.19;72.12;99536.81;5336127;26;20017;-90
2024/04/15 02:53:42;;;;;;;10.80;5.97;;;;;;;12.28;72.30;99562.97;5361307;26;20434;-92
2024/04/15 02:56:08;;;;;;;12.13;5.78;;;;;;;12.33;72.48;99568.34;5331770;26;19996;-92
2024/04/15 02:58:35;;;;;;;9.45;5.78;;;;;;;12.19;72.09;99550.31;5360440;26;20003;-91
2024/04/15 03:01:00;;;;;;;14.77;6.68;;;;;;;12.10;72.41;99539.28;5332746;26;20007;-90
2024/04/15 03:03:26;;;;;;;8.30;5.80;;;;;;;12.12;72.17;99558.72;5331293;26;19997;-89
2024/04/15 03:05:53;;;;;;;10.10;6.25;;;;;;;12.23;72.36;99579.19;5331905;26;20007;-91
2024/04/15 03:08:19;;;;;;;13.45;7.03;;;;;;;12.01;72.49;99547.09;5361141;26;20028;-89
2024/04/15 03:10:47;;;;;;;13.23;7.50;;;;;;;12.10;72.50;99561.69;5358440;26;20007;-92
2024/04/15 03:13:13;;;;;;;14.45;8.50;;;;;;;12.11;72.43;99563.28;5389038;26;20004;-92
2024/04/15 03:15:39;;;;;;;14.02;7.75;;;;;;;12.29;72.51;99583.50;5389457;26;20011;-92
2024/04/15 03:18:04;;;;;;;16.30;7.68;;;;;;;12.29;72.01;99556.50;5331530;26;20000;-90
2024/04/15 03:20:30;;;;;;;18.52;8.88;;;;;;;12.29;72.63;99578.09;5329342;26;20007;-92
2024/04/15 03:22:57;;;;;;;22.05;8.85;;;;;;;12.28;72.63;99581.06;5329323;26;20008;-91
2024/04/15 03:25:23;;;;;;;17.15;7.43;;;;;;;12.18;72.37;99570.28;5393223;26;20004;-90
2024/04/15 03:27:49;;;;;;;10.90;6.97;;;;;;;12.10;72.61;99561.69;5337828;26;20000;-90
2024/04/15 03:30:15;;;;;;;16.83;7.72;;;;;;;12.12;72.60;99577.59;5340297;26;20576;-89
2024/04/15 03:32:40;;;;;;;15.27;7.45;;;;;;;12.23;72.19;99579.19;5392298;26;19995;-91
2024/04/15 03:35:15;;;;;;;13.05;6.55;;;;;;;12.07;72.24;99564.09;5398362;26;20006;-89
2024/04/15 03:37:41;;;;;;;10.57;6.20;;;;;;;11.97;72.82;99558.72;5399418;26;19991;-89
2024/04/15 03:40:07;;;;;;;11.73;6.10;;;;;;;12.04;72.67;99583.56;5366865;26;19996;-92
2024/04/15 03:42:33;;;;;;;14.45;6.53;;;;;;;11.77;72.63;99556.84;5367472;26;20064;-91
2024/04/15 03:44:59;;;;;;;14.32;6.40;;;;;;;11.89;72.77;99578.97;5365988;26;19992;-90
2024/04/15 03:47:27;;;;;;;13.48;6.47;;;;;;;11.92;72.18;99573.03;5396997;26;19996;-89
2024/04/15 03:49:52;;;;;;;13.90;6.88;;;;;;;11.92;72.50;99573.84;5396923;26;20000;-92
2024/04/15 03:52:18;;;;;;;10.80;6.38;;;;;;;11.89;72.53;99569.00;5367554;26;20009;-92
2024/04/15 03:54:44;;;;;;;22.05;7.65;;;;;;;11.91;72.94;99569.53;5362979;26;20007;-92
2024/04/15 03:57:10;;;;;;;20.52;7.00;;;;;;;11.87;72.89;99571.13;5392752;26;19999;-92
2024/04/15 03:59:36;;;;;;;23.75;7.90;;;;;;;11.86;73.03;99576.78;5363387;26;20040;-92
2024/04/15 04:02:02;;;;;;;30.50;7.80;;;;;;;11.88;72.80;99570.06;5336157;26;20003;-91
2024/04/15 04:04:39;;;;;;;11.30;7.28;;;;;;;12.08;72.99;99592.72;5366542;26;20392;-91
2024/04/15 04:07:07;;;;;;;12.00;7.35;;;;;;;11.97;72.70;99575.72;5337115;26;19991;-92
2024/04/15 04:09:41;;;;;;;18.75;7.65;;;;;;;12.10;72.60;99591.38;5336972;26;20002;-91
2024/04/15 04:12:08;;;;;;;19.10;6.95;;;;;;;12.10;72.49;99587.88;5366501;26;20077;-91
2024/04/15 04:18:06;;;;;;;13.73;6.82;;;;;;;11.98;72.45;99565.75;5283342;26;19998;-92
2024/04/15 04:27:25;;;;;;;15.57;7.15;;;;;;;12.24;71.35;99583.50;5384101;26;20040;-93
2024/04/15 04:29:51;;;;;;;17.95;7.53;;;;;;;12.31;71.22;99583.22;5303515;26;20507;-91
2024/04/15 04:32:17;;;;;;;17.50;6.80;;;;;;;12.42;70.52;99584.00;5326632;26;20012;-89
2024/04/15 04:34:42;;;;;;;26.35;8.18;;;;;;;12.60;70.32;99591.50;5328896;26;19995;-94
2024/04/15 04:37:08;;;;;;;81.97;17.15;;;;;;;12.60;70.70;99588.78;5341793;26;20073;-93
2024/04/15 04:39:33;;;;;;;24.42;7.60;;;;;;;12.64;70.00;99579.03;5360528;26;20346;-92
2024/04/15 04:41:59;;;;;;;15.48;6.90;;;;;;;12.70;69.43;99566.31;5315367;26;20012;-94
2024/04/15 04:44:32;;;;;;;13.63;6.60;;;;;;;12.88;69.42;99576.47;5308360;26;20486;-93
2024/04/15 04:46:58;;;;;;;13.85;6.65;;;;;;;12.92;68.94;99569.44;5338930;26;20016;-94
2024/04/15 04:49:30;;;;;;;15.23;6.20;;;;;;;13.00;68.82;99576.16;5337666;26;20047;-93
2024/04/15 04:51:56;;;;;;;21.40;5.90;;;;;;;12.99;67.72;99562.91;5362814;26;20007;-90
2024/04/15 04:54:22;;;;;;;12.75;4.88;;;;;;;13.22;67.01;99583.03;5326428;26;20445;-91
2024/04/15 04:56:49;;;;;;;11.70;4.65;;;;;;;13.34;66.67;99570.00;5338838;26;20005;-92
2024/04/15 04:59:18;;;;;;;18.13;5.13;;;;;;;13.51;65.76;99570.44;5369682;26;19999;-91
2024/04/15 05:01:43;;;;;;;14.98;5.10;;;;;;;13.62;65.71;99559.53;5366173;26;20011;-91
2024/04/15 05:04:39;;;;;;;8.65;4.32;;;;;;;13.99;64.54;99587.88;5398934;26;20014;-93
2024/04/15 05:07:04;;;;;;;6.18;3.90;;;;;;;14.06;64.34;99582.94;5397742;26;20005;-92
2024/04/15 05:09:33;;;;;;;9.18;4.50;;;;;;;13.99;64.27;99566.22;5365104;26;20445;-91
2024/04/15 05:12:17;;;;;;;10.48;4.03;;;;;;;14.20;63.82;99583.88;5370318;26;20052;-91
2024/04/15 05:15:22;;;;;;;12.38;4.63;;;;;;;14.19;63.33;99562.47;5351488;26;20357;-92
2024/04/15 05:17:58;;;;;;;8.32;4.40;;;;;;;14.19;63.52;99567.91;5423906;26;19995;-91
2024/04/15 05:20:57;;;;;;;11.88;4.25;;;;;;;14.11;64.10;99555.78;5398591;26;20006;-92
2024/04/15 05:23:31;;;;;;;17.27;5.65;;;;;;;14.37;63.72;99585.31;5289897;27;20017;-91
2024/04/15 05:26:28;;;;;;;138.48;10.18;;;;;;;14.21;63.61;99541.34;5290922;26;20324;-96
2024/04/15 05:29:10;;;;;;;8.73;4.05;;;;;;;14.42;63.28;99556.28;5415366;26;19998;-93
2024/04/15 05:31:42;;;;;;;12.13;5.10;;;;;;;14.49;62.83;99534.25;5406266;26;20014;-89
2024/04/15 05:34:08;;;;;;;14.05;5.32;;;;;;;14.66;62.80;99561.69;5426175;26;20468;-90
2024/04/15 05:36:36;;;;;;;10.60;5.30;;;;;;;14.74;62.70;99552.09;5371576;26;20040;-89
2024/04/15 05:39:02;;;;;;;8.38;5.07;;;;;;;14.86;62.51;99547.06;5370025;26;20009;-91
2024/04/15 05:41:28;;;;;;;15.25;4.78;;;;;;;15.06;62.62;99543.22;5396985;26;20017;-90
2024/04/15 05:43:56;;;;;;;10.45;5.30;;;;;;;15.16;62.48;99540.38;5367530;26;20443;-91
2024/04/15 05:46:47;;;;;;;11.73;4.43;;;;;;;15.24;61.39;99536.19;5376847;26;20013;-90
2024/04/15 05:49:15;;;;;;;10.07;4.25;;;;;;;15.46;60.44;99535.56;5377031;26;20036;-92
2024/04/15 05:51:42;;;;;;;8.73;4.15;;;;;;;15.66;59.41;99528.19;5380721;26;20002;-94
2024/04/15 05:54:07;;;;;;;8.50;4.75;;;;;;;15.79;59.54;99527.41;5371113;26;20438;-94
2024/04/15 05:56:39;;;;;;;11.43;5.22;;;;;;;15.90;58.69;99515.28;5368139;26;20001;-92
2024/04/15 05:59:04;;;;;;;13.75;5.30;;;;;;;15.99;58.50;99526.25;5371862;26;20021;-91
2024/04/15 06:01:35;;;;;;;14.00;5.07;;;;;;;16.16;59.11;99529.19;5363907;26;20003;-95
2024/04/15 06:04:22;;;;;;;10.80;5.25;;;;;;;16.24;58.33;99516.00;5357187;26;20011;-92
2024/04/15 06:06:53;;;;;;;11.73;6.28;;;;;;;16.45;57.63;99528.03;5367051;26;20002;-92
2024/04/15 06:09:20;;;;;;;7.77;4.67;;;;;;;16.49;56.87;99520.09;5400547;26;19999;-94
2024/04/15 06:11:46;;;;;;;6.43;3.85;;;;;;;16.66;56.49;99516.75;5369237;26;20262;-96
2024/04/15 06:14:14;;;;;;;8.52;4.43;;;;;;;16.90;56.76;99524.69;5376068;26;19995;-92
2024/04/15 06:16:39;;;;;;;13.25;3.42;;;;;;;17.04;55.69;99516.50;5339455;26;20118;-89
2024/04/15 06:19:05;;;;;;;7.57;3.90;;;;;;;17.02;55.85;99483.34;5359808;26;20008;-88
2024/04/15 06:21:33;;;;;;;11.32;4.60;;;;;;;17.15;55.76;99493.34;5339118;26;20072;-90
2024/04/15 06:23:59;;;;;;;4.95;3.53;;;;;;;17.27;55.12;99481.91;5334218;26;20075;-91
2024/04/15 06:26:27;;;;;;;5.60;3.42;;;;;;;17.40;54.49;99494.63;5366943;26;20006;-93
2024/04/15 06:29:04;;;;;;;7.95;3.58;;;;;;;17.66;54.23;99505.69;5339822;26;20004;-89
2024/04/15 06:31:35;;;;;;;5.60;3.22;;;;;;;17.69;53.80;99490.63;5335844;26;20023;-90
2024/04/15 06:34:04;;;;;;;7.90;3.20;;;;;;;17.84;53.29;99492.19;5334670;26;20015;-91
2024/04/15 06:36:34;;;;;;;7.63;3.50;;;;;;;17.96;52.82;99484.22;5378260;26;20013;-89
2024/04/15 06:45:56;;;;;;;10.27;3.42;;;;;;;18.40;52.36;99492.53;5213145;27;20006;-88
2024/04/15 06:48:24;;;;;;;5.22;3.38;;;;;;;18.56;51.23;99485.50;5174122;27;20371;-95
2024/04/15 06:51:30;;;;;;;6.38;3.53;;;;;;;18.62;50.67;99458.88;5207026;27;20062;-92
2024/04/15 06:54:24;;;;;;;5.63;3.60;;;;;;;18.88;50.43;99476.06;5385871;26;20040;-90
2024/04/15 06:56:49;;;;;;;6.40;3.83;;;;;;;18.95;50.92;99460.03;5328952;26;19990;-93
2024/04/15 06:59:15;;;;;;;5.68;3.10;;;;;;;19.17;50.56;99471.88;5299792;26;19992;-91
2024/04/15 07:01:41;;;;;;;5.68;2.85;;;;;;;19.25;50.52;99449.22;5300079;26;20061;-92
2024/04/15 07:04:10;;;;;;;8.20;3.08;;;;;;;19.32;50.90;99440.53;5361443;26;20006;-92
2024/04/15 07:06:41;;;;;;;7.78;3.10;;;;;;;19.49;50.14;99448.69;5385881;26;20318;-92
2024/04/15 07:09:07;;;;;;;;;;;;;;;19.84;50.06;99470.44;5345389;26;20015;-94
2024/04/15 07:14:32;;;;;;;45.17;6.45;;;;;;;20.01;49.93;99436.78;5404303;26;19991;-93
2024/04/15 07:21:25;;;;;;;5.30;3.10;;;;;;;20.23;49.09;99413.00;5387753;26;20069;-91
2024/04/15 07:31:23;;;;;;;7.82;3.63;;;;;;;20.92;48.35;99437.09;5319302;27;20093;-90
2024/04/15 07:33:49;;;;;;;8.90;3.95;;;;;;;20.96;47.56;99416.13;5288613;27;20037;-91
2024/04/15 07:40:43;;;;;;;;;;;;;;;;;;;;;
2024/04/15 07:44:14;;;;;;;;;;;;;;;;;;;;;
2024/04/15 07:47:29;;;;;;;3.38;2.97;;;;;;;21.61;45.98;99406.59;5183008;27;20003;-95
2024/04/15 08:00:56;;;;;;;;;;;;;;;22.38;45.06;99415.69;5253995;27;20029;-93
2024/04/15 08:03:31;;;;;;;5.88;2.80;;;;;;;22.43;45.14;99395.44;5227329;27;20278;-95
2024/04/15 08:09:20;;;;;;;;;;;;;;;;;;;;;
2024/04/15 08:12:04;;;;;;;4.53;2.53;;;;;;;22.99;42.76;99387.25;5310856;26;20033;-91
2024/04/15 08:14:30;;;;;;;6.50;3.92;;;;;;;23.17;42.19;99381.44;5287013;26;20433;-91
2024/04/15 08:17:04;;;;;;;6.15;3.15;;;;;;;23.35;42.82;99368.97;5263520;26;20005;-93
2024/04/15 08:19:40;;;;;;;12.35;2.60;;;;;;;23.53;41.91;99363.09;5302362;26;20542;-95
2024/04/15 08:22:26;;;;;;;4.35;2.65;;;;;;;23.66;41.02;99356.34;5267665;26;19989;-93
2024/04/15 08:25:23;;;;;;;;;;;;;;;;;;;;;
2024/04/15 08:31:28;;;;;;;6.85;2.85;;;;;;;24.23;39.75;99356.84;5251447;27;20046;-94
2024/04/15 08:34:15;;;;;;;4.60;3.00;;;;;;;24.24;39.38;99330.13;5236933;27;20032;-95
2024/04/15 08:36:46;;;;;;;7.13;3.55;;;;;;;24.48;39.17;99340.06;5270499;27;20106;-95
2024/04/15 08:39:45;;;;;;;;;;;;;;;;;;;;;
2024/04/15 08:42:22;;;;;;;3.75;2.25;;;;;;;24.80;38.54;99338.75;5324227;26;19991;-93
2024/04/15 08:44:50;;;;;;;3.15;2.10;;;;;;;24.86;38.52;99321.94;5363916;26;20006;-92
2024/04/15 08:47:52;;;;;;;;;;;;;;;;;;;;;
2024/04/15 08:52:59;;;;;;;8.00;2.47;;;;;;;25.25;37.09;99327.34;5326966;26;20017;-92
2024/04/15 08:55:25;;;;;;;5.05;2.20;;;;;;;25.23;34.79;99297.41;5266672;27;20020;-92
2024/04/15 09:01:11;;;;;;;5.68;2.80;;;;;;;25.71;34.34;99303.28;5314514;26;20041;-94
2024/04/15 09:04:07;;;;;;;7.78;2.90;;;;;;;25.92;34.64;99321.31;5251938;27;20035;-96
2024/04/15 09:06:33;;;;;;;4.15;2.20;;;;;;;26.01;33.22;99297.78;5211698;27;20385;-92
2024/04/15 09:09:22;;;;;;;5.13;2.22;;;;;;;26.28;32.39;99306.00;5232356;27;20010;-95
2024/04/15 09:12:00;;;;;;;6.93;2.47;;;;;;;26.31;31.90;99296.97;5284729;26;20023;-95
2024/04/15 09:14:28;;;;;;;6.82;2.20;;;;;;;26.46;32.35;99305.41;5215169;26;20036;-93
2024/04/15 09:17:23;;;;;;;;;;;;;;;;;;;;;
2024/04/15 09:19:50;;;;;;;4.97;2.00;;;;;;;26.57;31.00;99271.25;5237125;27;20000;-96
2024/04/15 09:22:28;;;;;;;;;;;;;;;;;;;;;
2024/04/15 09:25:03;;;;;;;9.35;3.60;;;;;;;26.86;30.17;99285.34;5234881;27;19994;-94
2024/04/15 09:28:18;;;;;;;5.38;2.10;;;;;;;26.97;29.00;99271.63;5204965;27;20026;-95
2024/04/15 09:37:02;;;;;;;3.83;1.50;;;;;;;27.37;24.91;99245.09;5151534;27;20012;-91
2024/04/15 09:40:14;;;;;;;4.30;1.83;;;;;;;27.57;24.65;99257.47;5254312;26;20000;-96
2024/04/15 09:42:48;;;;;;;;;;;;;;;27.67;25.51;99247.66;5254287;27;20010;-95
2024/04/15 09:49:08;;;;;;;5.70;1.85;;;;;;;27.88;24.54;99237.91;5219618;27;20032;-91
2024/04/15 09:51:37;;;;;;;6.93;2.13;;;;;;;27.84;23.27;99212.19;5161143;27;20000;-93
2024/04/15 09:54:08;;;;;;;18.13;12.88;;;;;;;27.95;23.88;99211.06;5184440;27;20003;-92
2024/04/15 09:56:51;;;;;;;;;;;;;;;28.16;23.52;99226.16;5140790;27;19999;-95
2024/04/15 09:59:50;;;;;;;3.55;1.95;;;;;;;28.23;23.91;99234.50;5219751;27;19976;-90
2024/04/15 10:02:24;;;;;;;5.70;1.38;;;;;;;28.08;21.85;99208.75;5187091;27;20023;-95
2024/04/15 10:04:50;;;;;;;6.53;1.95;;;;;;;28.09;22.06;99199.25;5191539;27;20027;-94
2024/04/15 10:07:41;;;;;;;5.70;3.55;;;;;;;28.20;23.17;99202.03;5138573;27;20015;-93
2024/04/15 10:10:45;;;;;;;;;;;;;;;;;;;;;
2024/04/15 10:13:38;;;;;;;10.02;1.80;;;;;;;28.29;21.19;99188.63;5152274;27;20000;-94
2024/04/15 10:16:05;;;;;;;6.00;1.80;;;;;;;28.27;21.75;99185.44;5153465;27;20305;-94
2024/04/15 10:18:34;;;;;;;3.72;1.60;;;;;;;28.22;22.67;99177.50;5125237;27;20004;-92
2024/04/15 10:20:59;;;;;;;3.63;1.67;;;;;;;28.38;21.20;99191.78;5144568;27;20000;-93
2024/04/15 10:23:38;;;;;;;;;;;;;;;;;;;;;
2024/04/15 10:26:24;;;;;;;;;;;;;;;;;;;;;
2024/04/15 10:28:50;;;;;;;3.20;1.77;;;;;;;28.73;20.29;99189.47;5231525;27;20074;-90
2024/04/15 10:31:28;;;;;;;;;;;;;;;;;;;;;
2024/04/15 10:33:56;;;;;;;4.25;2.17;;;;;;;28.68;19.50;99157.44;5217838;27;20625;-94
2024/04/15 10:36:42;;;;;;;5.20;2.08;;;;;;;28.72;20.41;99144.38;5176080;27;20035;-91
2024/04/15 10:39:21;;;;;;;9.55;1.92;;;;;;;28.78;19.85;99147.50;5190570;27;20135;-93
2024/04/15 10:42:05;;;;;;;3.15;1.65;;;;;;;28.86;20.70;99142.75;5216400;27;20003;-91
2024/04/15 10:44:47;;;;;;;;;;;;;;;;;;;;;
2024/04/15 10:47:16;;;;;;;5.53;2.70;;;;;;;29.06;20.53;99132.03;5265406;27;20344;-92
2024/04/15 10:53:11;;;;;;;3.90;1.80;;;;;;;29.10;19.48;99125.31;5320056;27;20070;-92
2024/04/15 10:55:39;;;;;;;4.07;1.70;;;;;;;29.15;20.31;99119.34;5235605;27;20006;-91
2024/04/15 10:58:16;;;;;;;2.97;1.55;;;;;;;29.24;19.69;99118.94;5258660;27;20008;-94
2024/04/15 11:00:45;;;;;;;5.13;1.55;;;;;;;29.31;20.03;99124.47;5260820;27;20080;-92
2024/04/15 11:03:27;;;;;;;6.00;2.10;;;;;;;29.33;20.10;99119.31;5235271;27;20030;-92
2024/04/15 11:05:53;;;;;;;10.95;9.82;;;;;;;29.38;19.89;99102.22;5256786;27;20083;-93
2024/04/15 11:08:28;;;;;;;3.90;1.80;;;;;;;29.29;19.80;99098.31;5257604;27;20472;-92
2024/04/15 11:10:59;;;;;;;2.97;1.27;;;;;;;29.35;19.35;99107.81;5287804;27;20016;-92
2024/04/15 11:13:24;;;;;;;4.97;1.73;;;;;;;29.31;19.49;99095.94;5251962;27;20009;-92
2024/04/15 11:16:03;;;;;;;1.48;1.15;;;;;;;29.27;19.80;99079.31;5252309;27;20322;-93
2024/04/15 11:18:38;;;;;;;4.88;1.90;;;;;;;29.37;19.99;99086.00;5254414;27;20002;-92
2024/04/15 11:21:40;;;;;;;9.07;3.13;;;;;;;29.38;20.24;99076.47;5255108;27;20056;-92
2024/04/15 11:24:29;;;;;;;4.82;1.67;;;;;;;29.49;19.24;99070.88;5184980;27;19995;-93
2024/04/15 11:26:59;;;;;;;4.22;1.75;;;;;;;29.52;20.18;99073.66;5160801;27;20441;-91
2024/04/15 11:29:33;;;;;;;5.95;1.63;;;;;;;29.47;20.28;99064.94;5145854;27;20004;-92
2024/04/15 11:32:02;;;;;;;8.70;2.63;;;;;;;29.60;20.50;99069.66;5159530;27;20006;-91
2024/04/15 11:34:30;;;;;;;9.07;2.10;;;;;;;29.52;19.83;99048.69;5139746;27;20020;-92
2024/04/15 11:37:26;;;;;;;94.50;39.15;;;;;;;29.48;20.91;99044.34;5130101;27;20036;-95
2024/04/15 11:40:03;;;;;;;6.40;2.92;;;;;;;29.61;20.81;99051.81;5135578;27;19996;-96
2024/04/15 11:42:32;;;;;;;2.95;1.73;;;;;;;29.67;21.14;99041.06;5158849;27;20008;-92
2024/04/15 11:45:19;;;;;;;9.15;1.90;;;;;;;29.68;19.86;99047.41;5131118;27;20033;-92
2024/04/15 11:47:52;;;;;;;4.45;1.73;;;;;;;29.71;20.87;99039.06;5169287;27;20017;-91
2024/04/15 11:50:40;;;;;;;3.83;1.80;;;;;;;29.64;20.69;99025.22;5225838;27;20006;-92
2024/04/15 11:53:06;;;;;;;3.75;1.98;;;;;;;29.73;21.32;99030.34;5233563;27;20057;-93
2024/04/15 11:55:34;;;;;;;7.45;2.13;;;;;;;29.77;21.45;99017.25;5169522;27;20094;-93
2024/04/15 12:05:35;;;;;;;11.70;5.25;;;;;;;29.83;21.23;99023.94;5260525;27;20102;-92
2024/04/15 12:08:25;;;;;;;8.02;2.30;;;;;;;29.77;20.89;99008.91;5259023;27;20003;-91
2024/04/15 12:11:19;;;;;;;;;;;;;;;;;;;;;
2024/04/15 12:21:35;;;;;;;;;;;;;;;;;;;;;
2024/04/15 12:34:39;;;;;;;;;;;;;;;;;;;;;
2024/04/15 12:37:32;;;;;;;6.63;2.25;;;;;;;29.60;20.67;98922.59;4976439;28;20029;-93
2024/04/15 12:40:29;;;;;;;5.30;2.60;;;;;;;29.73;20.78;98941.53;5022098;28;20014;-91
2024/04/15 12:43:22;;;;;;;4.47;2.00;;;;;;;29.70;21.19;98925.69;5240723;27;20358;-94
2024/04/15 12:46:01;;;;;;;10.25;3.40;;;;;;;29.73;21.42;98919.34;5165403;27;20004;-90
2024/04/15 12:48:31;;;;;;;7.68;2.45;;;;;;;29.64;21.45;98913.47;5190468;27;20003;-92
2024/04/15 12:51:18;;;;;;;;;;;;;;;;;;;;;
2024/04/15 12:53:45;;;;;;;7.60;2.40;;;;;;;29.65;21.00;98899.16;5253048;26;20013;-93
2024/04/15 12:56:29;;;;;;;4.65;2.08;;;;;;;29.70;20.96;98895.16;5258958;26;20074;-93
2024/04/15 12:59:41;;;;;;;7.55;2.38;;;;;;;29.69;20.72;98880.47;5272843;26;20009;-94
2024/04/15 13:02:23;;;;;;;4.68;2.83;;;;;;;29.82;21.01;98891.91;5268773;26;20009;-93
2024/04/15 13:05:33;;;;;;;7.25;3.38;;;;;;;29.83;19.65;98896.25;5279008;26;20001;-92
2024/04/15 13:15:09;;;;;;;;;;;;;;;;;;;;;
2024/04/15 13:17:41;;;;;;;7.40;1.42;;;;;;;30.08;18.28;98878.56;5075300;28;20020;-93
2024/04/15 13:20:09;;;;;;;5.05;1.73;;;;;;;30.05;17.93;98871.06;5098104;27;20053;-95
2024/04/15 13:23:08;;;;;;;2.30;1.52;;;;;;;30.01;18.44;98848.91;5220770;27;20002;-95
2024/04/15 13:25:34;;;;;;;14.23;2.30;;;;;;;29.95;18.76;98848.56;5232115;27;20009;-93
2024/04/15 13:28:28;;;;;;;5.63;1.80;;;;;;;29.95;18.35;98848.56;5263034;26;20455;-95
2024/04/15 13:34:25;;;;;;;5.28;1.60;;;;;;;30.17;18.75;98845.53;5302900;27;20009;-94
2024/04/15 13:36:59;;;;;;;4.30;1.90;;;;;;;30.33;19.09;98829.09;5238478;27;19997;-96
2024/04/15 13:39:39;;;;;;;3.63;1.60;;;;;;;30.44;18.65;98831.75;5236650;27;20007;-96
2024/04/15 13:42:14;;;;;;;6.67;1.47;;;;;;;30.24;18.48;98817.69;5242088;27;20014;-94
2024/04/15 13:44:54;;;;;;;6.43;1.42;;;;;;;30.35;18.38;98835.03;5261739;27;20280;-95
2024/04/15 13:47:32;;;;;;;;;;;;;;;;;;;;;
2024/04/15 13:50:01;;;;;;;4.30;1.90;;;;;;;30.40;18.56;98820.69;5304979;26;20001;-94
2024/04/15 13:52:39;;;;;;;;;;;;;;;;;;;;;
2024/04/15 13:55:58;;;;;;;5.15;1.98;;;;;;;30.23;18.93;98822.44;5273985;27;20113;-95
2024/04/15 14:01:43;;;;;;;8.52;1.85;;;;;;;30.29;19.22;98808.13;5301687;26;20313;-93
2024/04/15 14:04:42;;;;;;;;;;;;;;;;;;;;;
2024/04/15 14:07:31;;;;;;;10.48;2.38;;;;;;;30.58;19.13;98816.91;5291581;27;20002;-94
2024/04/15 14:10:06;;;;;;;6.65;4.65;;;;;;;30.67;18.32;98802.47;5276454;27;20009;-96
2024/04/15 14:12:34;;;;;;;5.97;2.10;;;;;;;30.81;18.11;98802.28;5243696;27;19994;-96
2024/04/15 14:15:17;;;;;;;3.38;1.60;;;;;;;30.85;19.39;98808.56;5260120;26;20013;-95
2024/04/15 14:20:52;;;;;;;4.53;1.35;;;;;;;30.87;19.15;98811.75;5186072;27;20019;-96